Dades de l'estació automàtica Bonaigua (2.262 m)
Resum diari
21:30 TU| Temperatura mitjana | 2.5 °C | |
|---|---|---|
| Temperatura màxima | 5.1 °C | 9:55 TU |
| Temperatura mínima | -0.1 °C | 21:46 TU |
| Humitat relativa mitjana | 91% | |
| Precipitació acumulada | 7.1 mm | |
| Gruix de neu màxim | 104 cm | |
| Ratxa màxima del vent (6 m) | 29.5 km/h - 214º | 1:05 TU |
| Irradiació solar global | 10.7 MJ/m2 | |
El tram horari està expressat en Temps Universal (TU). Cal sumar una hora en horari d'hivern i dues en horari d'estiu per passar a l'hora oficial.
Bonaigua (2.262 m)
| Municipi | Alt Àneu |
|---|---|
| Comarca | Pallars Sobirà |
| Altitud | 2262 m |
| Data alta | 06.11.1997 |
| Estat actual | Operativa |
| Període TU |
TM °C |
TX °C |
TN °C |
HRM % |
PPT mm |
GN cm |
VVM (6 m) km/h |
DVM (6 m) graus |
VVX (6 m) km/h |
RS W/m2 |
|---|---|---|---|---|---|---|---|---|---|---|
| 00:00 - 00:30 | 3.4 | 3.8 | 3.0 | 85 | 0.0 | 104 | 5.4 | 153 | 19.4 | 0 |
| 00:30 - 01:00 | 3.7 | 3.9 | 3.5 | 83 | 0.0 | 104 | 9.7 | 220 | 18.7 | 0 |
| 01:00 - 01:30 | 3.8 | 4.0 | 3.5 | 77 | 0.0 | 104 | 11.9 | 230 | 29.5 | 0 |
| 01:30 - 02:00 | 3.0 | 3.5 | 2.3 | 82 | 0.0 | 104 | 3.6 | 93 | 8.3 | 0 |
| 02:00 - 02:30 | 2.6 | 3.0 | 2.1 | 87 | 0.0 | 104 | 4.0 | 83 | 9.4 | 0 |
| 02:30 - 03:00 | 2.8 | 3.2 | 2.6 | 82 | 0.0 | 103 | 2.5 | 90 | 7.6 | 0 |
| 03:00 - 03:30 | 3.0 | 3.3 | 2.7 | 82 | 0.0 | 103 | 2.5 | 98 | 8.6 | 0 |
| 03:30 - 04:00 | 2.8 | 3.3 | 2.5 | 86 | 0.0 | 103 | 3.6 | 93 | 13.0 | 0 |
| 04:00 - 04:30 | 2.1 | 2.7 | 1.9 | 98 | 0.0 | 103 | 11.9 | 96 | 16.9 | 0 |
| 04:30 - 05:00 | 1.8 | 2.0 | 1.7 | 100 | 0.3 | 103 | 10.8 | 98 | 16.6 | 1 |
| 05:00 - 05:30 | 1.7 | 1.9 | 1.6 | 98 | 0.8 | 103 | 9.0 | 103 | 16.9 | 15 |
| 05:30 - 06:00 | 1.3 | 1.6 | 0.9 | 96 | 1.3 | 103 | 7.2 | 126 | 15.8 | 22 |
| 06:00 - 06:30 | 1.3 | 1.5 | 1.1 | 96 | 0.0 | 103 | 18.7 | 97 | 24.8 | 94 |
| 06:30 - 07:00 | 1.4 | 1.8 | 1.3 | 100 | 0.0 | 103 | 14.4 | 102 | 22.3 | 149 |
| 07:00 - 07:30 | 2.1 | 2.5 | 1.6 | 94 | 0.0 | 102 | 9.4 | 100 | 15.8 | 163 |
| 07:30 - 08:00 | 2.5 | 3.5 | 1.4 | 88 | 0.0 | 102 | 9.0 | 147 | 18.7 | 201 |
| 08:00 - 08:30 | 2.9 | 3.7 | 2.0 | 86 | 0.0 | 102 | 8.6 | 117 | 17.3 | 340 |
| 08:30 - 09:00 | 2.3 | 2.5 | 2.1 | 97 | 0.0 | 101 | 11.9 | 100 | 20.2 | 504 |
| 09:00 - 09:30 | 3.0 | 3.7 | 2.5 | 91 | 0.0 | 101 | 11.5 | 89 | 18.7 | 597 |
| 09:30 - 10:00 | 4.1 | 5.1 | 3.6 | 81 | 0.0 | 98 | 6.8 | 97 | 17.6 | 656 |
| 10:00 - 10:30 | 4.0 | 4.6 | 3.8 | 88 | 0.0 | 99 | 4.0 | 63 | 15.1 | 363 |
| 10:30 - 11:00 | 3.2 | 3.9 | 2.5 | 86 | 1.5 | 99 | 8.3 | 171 | 20.9 | 281 |
| 11:00 - 11:30 | 3.2 | 4.0 | 2.5 | 84 | 0.6 | 99 | 7.6 | 114 | 19.1 | 441 |
| 11:30 - 12:00 | 4.6 | 5.0 | 3.8 | 76 | 0.0 | 99 | 6.1 | 249 | 20.2 | 443 |
| 12:00 - 12:30 | 4.1 | 4.7 | 3.9 | 81 | 0.0 | 100 | 6.1 | 222 | 18.0 | 269 |
| 12:30 - 13:00 | 4.1 | 4.6 | 3.6 | 82 | 0.0 | 100 | 7.2 | 175 | 21.6 | 244 |
| 13:00 - 13:30 | 4.2 | 4.5 | 3.7 | 80 | 0.0 | 100 | 4.0 | 56 | 13.7 | 148 |
| 13:30 - 14:00 | 4.3 | 4.6 | 4.1 | 76 | 0.0 | 98 | 5.4 | 115 | 20.5 | 143 |
| 14:00 - 14:30 | 4.0 | 4.3 | 3.8 | 88 | 0.2 | 98 | 5.8 | 120 | 16.2 | 231 |
| 14:30 - 15:00 | 4.1 | 4.5 | 3.8 | 88 | 0.1 | 98 | 4.3 | 206 | 13.0 | 264 |
| 15:00 - 15:30 | 2.7 | 3.7 | 2.4 | 96 | 0.0 | 99 | 10.1 | 101 | 22.3 | 96 |
| 15:30 - 16:00 | 2.4 | 2.5 | 2.2 | 94 | 0.2 | 99 | 12.6 | 100 | 22.0 | 42 |
| 16:00 - 16:30 | 2.3 | 2.4 | 2.2 | 97 | 1.0 | 100 | 9.0 | 100 | 17.6 | 120 |
| 16:30 - 17:00 | 2.2 | 2.3 | 2.1 | 98 | 0.1 | 100 | 11.2 | 101 | 18.4 | 38 |
| 17:00 - 17:30 | 2.2 | 2.3 | 1.8 | 97 | 0.5 | 97 | 3.2 | 353 | 11.5 | 24 |
| 17:30 - 18:00 | 1.9 | 2.1 | 1.8 | 100 | 0.1 | 97 | 5.0 | 281 | 16.9 | 44 |
| 18:00 - 18:30 | 1.3 | 2.1 | 0.6 | 100 | 0.1 | 98 | 11.2 | 281 | 23.0 | 15 |
| 18:30 - 19:00 | 0.4 | 0.6 | 0.3 | 100 | 0.1 | 98 | 10.4 | 277 | 19.4 | 4 |
| 19:00 - 19:30 | 0.3 | 0.4 | 0.2 | 100 | 0.2 | 98 | 6.8 | 281 | 13.7 | 0 |
| 19:30 - 20:00 | 0.2 | 0.5 | 0.2 | 100 | 0.0 | 98 | 2.9 | 108 | 8.6 | 0 |
| 20:00 - 20:30 | 1.2 | 1.6 | 0.5 | 99 | 0.0 | 98 | 8.6 | 110 | 17.3 | 0 |
| 20:30 - 21:00 | 1.2 | 1.4 | 1.0 | 98 | 0.0 | 98 | 9.7 | 83 | 14.4 | 0 |
| 21:00 - 21:30 | 0.7 | 1.2 | 0.3 | 99 | 0.0 | 97 | 1.8 | 253 | 6.8 | 0 |
| 21:30 - 22:00 | 0.0 | 0.2 | -0.1 | 100 | 0.0 | 97 | 3.2 | 268 | 9.7 | 0 |
| 22:00 - 22:30 | (s/d) | (s/d) | (s/d) | (s/d) | (s/d) | (s/d) | (s/d) | (s/d) | (s/d) | (s/d) |
Les dades en taronja només han passat un control de qualitat automàtic. Resta pendent la seva validació definitiva.